createdAt,value
2023-03-06T00:00:59.658Z,10.10
2023-03-06T00:03:28.358Z,10.10
2023-03-06T00:05:57.933Z,10.10
2023-03-06T00:08:27.065Z,10.10
2023-03-06T00:10:55.112Z,10.20
2023-03-06T00:13:22.704Z,10.20
2023-03-06T00:15:50.265Z,10.20
2023-03-06T00:18:18.170Z,10.20
2023-03-06T00:20:45.607Z,10.20
2023-03-06T00:23:13.170Z,10.30
2023-03-06T00:25:44.724Z,10.20
2023-03-06T00:28:12.591Z,10.20
2023-03-06T00:30:40.007Z,10.10
2023-03-06T00:33:07.877Z,10.10
2023-03-06T00:35:35.293Z,10.00
2023-03-06T00:38:02.630Z,10.00
2023-03-06T00:40:29.909Z,9.90
2023-03-06T00:42:57.246Z,9.90
2023-03-06T00:45:24.542Z,9.80
2023-03-06T00:47:51.886Z,9.80
2023-03-06T00:50:19.310Z,9.80
2023-03-06T00:52:46.530Z,9.70
2023-03-06T00:55:13.916Z,9.70
2023-03-06T00:57:41.437Z,9.70
2023-03-06T01:00:11.236Z,9.60
2023-03-06T01:02:38.733Z,9.50
2023-03-06T01:05:07.238Z,9.50
2023-03-06T01:07:36.679Z,9.40
2023-03-06T01:10:08.088Z,9.40
2023-03-06T01:12:35.829Z,9.40
2023-03-06T01:15:03.467Z,9.30
2023-03-06T01:17:30.733Z,9.30
2023-03-06T01:19:58.398Z,9.30
2023-03-06T01:22:25.750Z,9.30
2023-03-06T01:24:53.431Z,9.40
2023-03-06T01:27:22.307Z,9.50
2023-03-06T01:29:49.565Z,9.70
2023-03-06T01:32:16.891Z,9.90
2023-03-06T01:34:44.302Z,9.90
2023-03-06T01:37:11.670Z,9.80
2023-03-06T01:39:38.993Z,9.80
2023-03-06T01:42:06.504Z,9.70
2023-03-06T01:44:33.796Z,9.70
2023-03-06T01:47:02.560Z,9.50
2023-03-06T01:49:35.664Z,9.40
2023-03-06T01:52:18.403Z,9.40
2023-03-06T01:54:54.198Z,9.30
2023-03-06T01:57:42.587Z,9.20
2023-03-06T02:00:13.957Z,9.10
2023-03-06T02:02:47.637Z,9.10
2023-03-06T02:05:14.895Z,9.00
2023-03-06T02:07:44.544Z,9.00
2023-03-06T02:10:15.249Z,8.90
2023-03-06T02:12:46.583Z,8.90
2023-03-06T02:15:16.246Z,9.00
2023-03-06T02:17:45.662Z,9.00
2023-03-06T02:20:31.577Z,9.00
2023-03-06T02:23:19.979Z,8.90
2023-03-06T02:25:52.218Z,8.90
2023-03-06T02:28:21.751Z,8.80
2023-03-06T02:30:51.398Z,8.80
2023-03-06T02:33:22.029Z,8.70
2023-03-06T02:36:06.989Z,8.70
2023-03-06T02:38:45.052Z,8.60
2023-03-06T02:41:12.838Z,8.60
2023-03-06T02:43:43.639Z,8.60
2023-03-06T02:46:11.310Z,8.50
2023-03-06T02:48:38.782Z,8.50
2023-03-06T02:51:06.297Z,8.50
2023-03-06T02:53:33.615Z,8.60
2023-03-06T02:56:01.019Z,8.70
2023-03-06T02:58:28.461Z,8.90
2023-03-06T03:00:55.961Z,8.90
2023-03-06T03:03:23.452Z,8.90
2023-03-06T03:05:53.331Z,8.90
2023-03-06T03:08:25.029Z,8.90
2023-03-06T03:10:57.437Z,8.90
2023-03-06T03:13:27.952Z,8.90
2023-03-06T03:16:06.937Z,8.90
2023-03-06T03:18:35.164Z,8.90
2023-03-06T03:21:02.813Z,8.90
2023-03-06T03:23:30.189Z,8.90
2023-03-06T03:26:13.348Z,8.80
2023-03-06T03:28:44.334Z,8.90
2023-03-06T03:31:14.376Z,8.90
2023-03-06T03:33:42.242Z,9.00
2023-03-06T03:36:10.588Z,9.00
2023-03-06T03:38:41.895Z,9.00
2023-03-06T03:41:09.500Z,8.90
2023-03-06T03:43:37.048Z,8.90
2023-03-06T03:46:06.198Z,8.90
2023-03-06T03:48:34.429Z,8.90
2023-03-06T03:51:09.573Z,8.90
2023-03-06T03:53:40.443Z,8.80
2023-03-06T03:56:10.745Z,8.90
2023-03-06T03:58:46.236Z,8.90
2023-03-06T04:01:14.477Z,9.00
2023-03-06T04:03:42.232Z,9.10
2023-03-06T04:06:11.086Z,9.20
2023-03-06T04:08:38.910Z,9.10
2023-03-06T04:11:06.776Z,9.00
2023-03-06T04:13:34.249Z,9.00
2023-03-06T04:16:01.596Z,8.90
2023-03-06T04:18:31.004Z,8.90
2023-03-06T04:21:02.998Z,9.00
2023-03-06T04:23:31.339Z,9.00
2023-03-06T04:25:58.945Z,9.00
2023-03-06T04:28:26.373Z,8.90
2023-03-06T04:30:53.819Z,8.80
2023-03-06T04:33:21.645Z,8.80
2023-03-06T04:35:49.499Z,8.80
2023-03-06T04:38:22.578Z,8.80
2023-03-06T04:40:50.113Z,8.70
2023-03-06T04:43:17.600Z,8.70
2023-03-06T04:45:44.964Z,8.70
2023-03-06T04:48:17.734Z,8.70
2023-03-06T04:50:45.448Z,8.60
2023-03-06T04:53:14.716Z,8.60
2023-03-06T04:55:42.210Z,8.60
2023-03-06T04:58:11.687Z,8.60
2023-03-06T05:00:39.143Z,8.60
2023-03-06T05:03:06.501Z,8.60
2023-03-06T05:05:33.775Z,8.50
2023-03-06T05:08:01.012Z,8.50
2023-03-06T05:10:29.397Z,8.40
2023-03-06T05:12:56.624Z,8.30
2023-03-06T05:15:24.106Z,8.30
2023-03-06T05:17:51.707Z,8.30
2023-03-06T05:20:19.101Z,8.20
2023-03-06T05:22:46.453Z,8.20
2023-03-06T05:25:13.900Z,8.10
2023-03-06T05:27:41.722Z,8.00
2023-03-06T05:30:12.593Z,8.00
2023-03-06T05:32:40.108Z,8.00
2023-03-06T05:35:07.944Z,8.00
2023-03-06T05:37:35.379Z,8.00
2023-03-06T05:40:06.779Z,8.00
2023-03-06T05:42:34.122Z,8.00
2023-03-06T05:45:03.049Z,8.10
2023-03-06T05:47:31.066Z,8.20
2023-03-06T05:49:58.538Z,8.20
2023-03-06T05:52:26.377Z,8.20
2023-03-06T05:54:55.130Z,8.30
2023-03-06T05:57:24.355Z,8.30
2023-03-06T05:59:51.944Z,8.40
2023-03-06T06:02:20.663Z,8.40
2023-03-06T06:04:48.224Z,8.50
2023-03-06T06:07:17.571Z,8.60
2023-03-06T06:09:48.058Z,8.80
2023-03-06T06:12:15.371Z,8.90
2023-03-06T06:14:42.739Z,9.00
2023-03-06T06:17:10.538Z,9.10
2023-03-06T06:19:37.934Z,9.20
2023-03-06T06:22:05.927Z,9.20
2023-03-06T06:24:33.339Z,9.30
2023-03-06T06:27:03.735Z,9.30
2023-03-06T06:29:32.349Z,9.40
2023-03-06T06:32:00.626Z,9.50
2023-03-06T06:34:28.657Z,9.60
2023-03-06T06:36:56.294Z,9.70
2023-03-06T06:39:24.782Z,9.80
2023-03-06T06:42:06.370Z,9.90
2023-03-06T06:44:40.553Z,9.90
2023-03-06T06:47:25.403Z,10.00
2023-03-06T06:49:55.215Z,10.10
2023-03-06T06:52:23.944Z,10.20
2023-03-06T06:54:52.147Z,10.30
2023-03-06T06:57:19.539Z,10.40
2023-03-06T06:59:46.921Z,10.60
2023-03-06T07:02:16.080Z,10.70
2023-03-06T07:05:00.355Z,10.90
2023-03-06T07:07:31.190Z,11.00
2023-03-06T07:09:58.502Z,11.20
2023-03-06T07:12:25.874Z,11.20
2023-03-06T07:14:53.193Z,11.30
2023-03-06T07:17:20.623Z,11.40
2023-03-06T07:19:48.436Z,11.50
2023-03-06T07:22:16.009Z,11.70
2023-03-06T07:24:43.292Z,11.90
2023-03-06T07:27:10.687Z,12.10
2023-03-06T07:29:38.024Z,12.20
2023-03-06T07:32:05.565Z,12.20
2023-03-06T07:34:32.892Z,12.30
2023-03-06T07:37:00.575Z,12.40
2023-03-06T07:39:31.284Z,12.50
2023-03-06T07:41:58.834Z,12.60
2023-03-06T07:44:26.632Z,12.70
2023-03-06T07:46:54.025Z,12.80
2023-03-06T07:49:22.605Z,12.80
2023-03-06T07:51:49.961Z,12.90
2023-03-06T07:54:17.345Z,13.00
2023-03-06T07:56:44.657Z,13.10
2023-03-06T07:59:12.422Z,13.20
2023-03-06T08:01:40.443Z,13.40
2023-03-06T08:04:07.763Z,13.50
2023-03-06T08:06:35.297Z,13.60
2023-03-06T08:09:05.031Z,13.70
2023-03-06T08:11:33.434Z,13.90
2023-03-06T08:14:00.990Z,14.00
2023-03-06T08:16:30.506Z,14.10
2023-03-06T08:18:58.115Z,14.20
2023-03-06T08:21:27.945Z,14.30
2023-03-06T08:23:55.689Z,14.30
2023-03-06T08:26:26.469Z,14.40
2023-03-06T08:28:55.664Z,14.50
2023-03-06T08:31:33.466Z,14.50
2023-03-06T08:34:04.471Z,14.50
2023-03-06T08:36:31.958Z,14.50
2023-03-06T08:38:59.721Z,14.50
2023-03-06T08:41:27.534Z,14.50
2023-03-06T08:43:55.346Z,14.60
2023-03-06T08:46:25.351Z,14.80
2023-03-06T08:48:53.330Z,14.90
2023-03-06T08:51:21.918Z,15.00
2023-03-06T08:53:50.160Z,15.00
2023-03-06T08:56:23.390Z,14.90
2023-03-06T08:58:51.647Z,15.00
2023-03-06T09:01:21.912Z,14.90
2023-03-06T09:03:49.847Z,15.00
2023-03-06T09:06:17.807Z,15.00
2023-03-06T09:08:45.289Z,15.10
2023-03-06T09:11:14.978Z,15.10
2023-03-06T09:13:43.417Z,15.20
2023-03-06T09:16:11.752Z,15.20
2023-03-06T09:18:39.743Z,15.20
2023-03-06T09:21:08.479Z,15.20
2023-03-06T09:23:37.274Z,15.50
2023-03-06T09:26:04.741Z,15.60
2023-03-06T09:28:32.758Z,15.70
2023-03-06T09:31:00.021Z,15.80
2023-03-06T09:33:28.847Z,16.10
2023-03-06T09:35:58.840Z,16.30
2023-03-06T09:38:28.669Z,16.10
2023-03-06T09:41:19.888Z,16.00
2023-03-06T09:43:53.793Z,16.10
2023-03-06T09:46:45.972Z,16.10
2023-03-06T09:49:23.242Z,15.90
2023-03-06T09:52:17.788Z,15.90
2023-03-06T09:54:47.336Z,16.00
2023-03-06T09:57:25.393Z,15.90
2023-03-06T09:59:56.810Z,16.00
2023-03-06T10:02:46.323Z,16.10
2023-03-06T10:05:33.222Z,16.20
2023-03-06T10:08:03.467Z,16.30
2023-03-06T10:10:50.822Z,16.40
2023-03-06T10:13:28.214Z,16.50
2023-03-06T10:16:06.578Z,16.50
2023-03-06T10:18:38.470Z,16.60
2023-03-06T10:21:41.733Z,16.60
2023-03-06T10:24:11.793Z,16.70
2023-03-06T10:26:49.177Z,16.60
2023-03-06T10:29:31.207Z,16.50
2023-03-06T10:32:10.970Z,16.70
2023-03-06T10:34:40.956Z,16.70
2023-03-06T10:37:20.118Z,16.80
2023-03-06T10:39:52.000Z,16.90
2023-03-06T10:42:19.239Z,16.70
2023-03-06T10:44:46.536Z,16.80
2023-03-06T10:47:35.145Z,16.90
2023-03-06T10:50:08.424Z,17.00
2023-03-06T10:52:36.863Z,17.10
2023-03-06T10:55:23.191Z,17.10
2023-03-06T10:57:50.648Z,17.00
2023-03-06T11:00:33.803Z,17.00
2023-03-06T11:03:12.361Z,17.10
2023-03-06T11:05:39.795Z,17.20
2023-03-06T11:08:21.896Z,17.30
2023-03-06T11:11:02.728Z,17.30
2023-03-06T11:13:36.504Z,17.40
2023-03-06T11:16:25.958Z,17.40
2023-03-06T11:19:00.815Z,17.50
2023-03-06T11:21:36.833Z,17.60
2023-03-06T11:24:06.208Z,17.90
2023-03-06T11:26:39.662Z,18.00
2023-03-06T11:29:16.062Z,18.00
2023-03-06T11:32:15.821Z,18.00
2023-03-06T11:34:54.990Z,17.70
2023-03-06T11:37:44.180Z,17.90
2023-03-06T11:40:11.547Z,17.90
2023-03-06T11:42:44.449Z,17.80
2023-03-06T11:45:26.821Z,17.60
2023-03-06T11:48:12.622Z,17.40
2023-03-06T11:50:51.765Z,17.60
2023-03-06T11:53:27.778Z,17.80
2023-03-06T11:56:14.622Z,17.90
2023-03-06T11:59:03.842Z,17.90
2023-03-06T12:01:39.787Z,18.10
2023-03-06T12:04:37.505Z,18.20
2023-03-06T12:07:27.893Z,18.00
2023-03-06T12:09:58.247Z,18.00
2023-03-06T12:12:44.302Z,18.00
2023-03-06T12:15:27.608Z,18.00
2023-03-06T12:18:01.096Z,18.10
2023-03-06T12:20:44.340Z,17.90
2023-03-06T12:23:26.763Z,17.90
2023-03-06T12:26:23.971Z,17.80
2023-03-06T12:29:05.999Z,17.80
2023-03-06T12:31:42.654Z,17.80
2023-03-06T12:34:30.694Z,17.70
2023-03-06T12:37:19.851Z,17.70
2023-03-06T12:39:53.113Z,17.70
2023-03-06T12:42:48.774Z,17.70
2023-03-06T12:45:33.435Z,18.10
2023-03-06T12:48:02.213Z,18.10
2023-03-06T12:50:37.139Z,18.20
2023-03-06T12:53:21.068Z,18.30
2023-03-06T12:55:50.006Z,18.20
2023-03-06T12:58:31.863Z,18.10
2023-03-06T13:01:05.071Z,17.80
2023-03-06T13:03:49.863Z,17.70
2023-03-06T13:06:50.222Z,17.40
2023-03-06T13:09:29.352Z,17.30
2023-03-06T13:12:02.455Z,17.10
2023-03-06T13:14:42.330Z,17.00
2023-03-06T13:17:24.902Z,16.90
2023-03-06T13:20:46.195Z,17.00
2023-03-06T13:23:39.049Z,17.10
2023-03-06T13:26:11.897Z,17.00
2023-03-06T13:28:50.680Z,16.90
2023-03-06T13:31:29.853Z,16.90
2023-03-06T13:34:26.394Z,16.90
2023-03-06T13:36:53.741Z,16.80
2023-03-06T13:39:21.031Z,16.60
2023-03-06T13:41:57.463Z,16.50
2023-03-06T13:44:24.916Z,16.60
2023-03-06T13:47:00.719Z,16.60
2023-03-06T13:49:29.273Z,16.60
2023-03-06T13:52:07.282Z,16.50
2023-03-06T13:54:37.623Z,16.50
2023-03-06T13:57:17.052Z,16.60
2023-03-06T14:00:20.118Z,16.60
2023-03-06T14:03:08.774Z,16.60
2023-03-06T14:05:43.477Z,16.50
2023-03-06T14:08:20.091Z,16.30
2023-03-06T14:10:57.959Z,16.30
2023-03-06T14:13:41.810Z,16.40
2023-03-06T14:16:21.356Z,16.40
2023-03-06T14:18:51.637Z,16.40
2023-03-06T14:21:31.220Z,16.30
2023-03-06T14:24:06.136Z,16.20
2023-03-06T14:26:47.367Z,16.20
2023-03-06T14:29:26.577Z,16.20
2023-03-06T14:31:56.646Z,16.20
2023-03-06T14:34:33.261Z,16.20
2023-03-06T14:37:07.988Z,16.20
2023-03-06T14:39:44.178Z,16.20
2023-03-06T14:42:27.912Z,16.20
2023-03-06T14:45:13.734Z,16.20
2023-03-06T14:47:41.447Z,16.20
2023-03-06T14:50:27.980Z,16.10
2023-03-06T14:53:01.537Z,16.00
2023-03-06T14:55:32.676Z,16.00
2023-03-06T14:58:13.844Z,15.90
2023-03-06T15:00:44.502Z,15.80
2023-03-06T15:03:41.585Z,15.80
2023-03-06T15:06:14.763Z,15.70
2023-03-06T15:08:46.702Z,15.50
2023-03-06T15:11:14.388Z,15.30
2023-03-06T15:13:41.760Z,14.90
2023-03-06T15:16:15.352Z,14.30
2023-03-06T15:19:04.267Z,13.60
2023-03-06T15:21:39.008Z,13.10
2023-03-06T15:24:36.212Z,12.70
2023-03-06T15:27:06.664Z,12.40
2023-03-06T15:29:37.959Z,12.30
2023-03-06T15:32:32.004Z,12.20
2023-03-06T15:35:38.576Z,12.20
2023-03-06T15:38:24.634Z,12.00
2023-03-06T15:40:57.207Z,11.90
2023-03-06T15:43:24.853Z,11.90
2023-03-06T15:45:58.414Z,11.80
2023-03-06T15:48:25.980Z,11.70
2023-03-06T15:50:53.338Z,11.60
2023-03-06T15:53:20.693Z,11.60
2023-03-06T15:55:48.298Z,11.60
2023-03-06T15:58:18.281Z,11.60
2023-03-06T16:00:45.663Z,11.50
2023-03-06T16:03:13.470Z,11.50
2023-03-06T16:05:40.938Z,11.50
2023-03-06T16:08:11.069Z,11.50
2023-03-06T16:10:40.685Z,11.50
2023-03-06T16:13:16.409Z,11.50
2023-03-06T16:15:50.613Z,11.40
2023-03-06T16:18:19.110Z,11.50
2023-03-06T16:20:46.759Z,11.40
2023-03-06T16:23:15.589Z,11.40
2023-03-06T16:25:48.500Z,11.40
2023-03-06T16:28:17.015Z,11.40
2023-03-06T16:30:45.772Z,11.40
2023-03-06T16:33:13.729Z,11.40
2023-03-06T16:35:41.496Z,11.50
2023-03-06T16:38:10.814Z,11.50
2023-03-06T16:40:41.492Z,11.60
2023-03-06T16:43:10.813Z,11.70
2023-03-06T16:45:41.243Z,11.80
2023-03-06T16:48:14.848Z,11.80
2023-03-06T16:50:42.442Z,11.80
2023-03-06T16:53:09.752Z,11.80
2023-03-06T16:55:37.071Z,11.90
2023-03-06T16:58:04.757Z,11.90
2023-03-06T17:00:33.452Z,11.90
2023-03-06T17:03:02.534Z,11.90
2023-03-06T17:05:33.352Z,11.90
2023-03-06T17:08:00.927Z,11.90
2023-03-06T17:10:28.382Z,11.90
2023-03-06T17:12:56.833Z,11.90
2023-03-06T17:15:24.528Z,11.90
2023-03-06T17:17:53.374Z,12.00
2023-03-06T17:20:21.014Z,12.00
2023-03-06T17:22:48.607Z,12.10
2023-03-06T17:25:16.142Z,12.10
2023-03-06T17:27:43.776Z,12.10
2023-03-06T17:30:11.924Z,12.10
2023-03-06T17:32:41.581Z,12.10
2023-03-06T17:35:10.346Z,12.10
2023-03-06T17:37:41.189Z,12.10
2023-03-06T17:40:10.174Z,11.90
2023-03-06T17:42:37.597Z,11.80
2023-03-06T17:45:05.576Z,11.70
2023-03-06T17:47:33.109Z,11.70
2023-03-06T17:50:00.406Z,11.60
2023-03-06T17:52:27.763Z,11.70
2023-03-06T17:54:55.217Z,11.60
2023-03-06T17:57:22.475Z,11.70
2023-03-06T17:59:49.925Z,11.60
2023-03-06T18:02:17.891Z,11.50
2023-03-06T18:04:45.334Z,11.50
2023-03-06T18:07:12.914Z,11.50
2023-03-06T18:09:43.147Z,11.40
2023-03-06T18:12:10.686Z,11.40
2023-03-06T18:14:38.127Z,11.40
2023-03-06T18:17:05.836Z,11.40
2023-03-06T18:19:33.105Z,11.30
2023-03-06T18:22:00.752Z,11.30
2023-03-06T18:24:28.262Z,11.30
2023-03-06T18:26:55.514Z,11.40
2023-03-06T18:29:22.814Z,11.50
2023-03-06T18:31:50.667Z,11.50
2023-03-06T18:34:18.644Z,11.60
2023-03-06T18:36:47.451Z,11.70
2023-03-06T18:39:15.977Z,11.80
2023-03-06T18:41:43.563Z,11.80
2023-03-06T18:44:15.572Z,11.80
2023-03-06T18:46:43.593Z,11.80
2023-03-06T18:49:12.988Z,11.80
2023-03-06T18:51:41.526Z,11.80
2023-03-06T18:54:09.891Z,11.90
2023-03-06T18:56:37.829Z,11.90
2023-03-06T18:59:07.182Z,11.90
2023-03-06T19:01:34.786Z,11.90
2023-03-06T19:04:05.703Z,11.90
2023-03-06T19:06:33.144Z,11.90
2023-03-06T19:09:01.940Z,12.00
2023-03-06T19:11:30.197Z,12.00
2023-03-06T19:13:57.537Z,11.90
2023-03-06T19:16:28.365Z,12.00
2023-03-06T19:18:56.204Z,11.90
2023-03-06T19:21:25.286Z,12.00
2023-03-06T19:23:53.250Z,12.00
2023-03-06T19:26:20.994Z,11.90
2023-03-06T19:28:49.742Z,11.90
2023-03-06T19:31:26.794Z,11.90
2023-03-06T19:33:56.969Z,11.90
2023-03-06T19:36:33.673Z,11.90
2023-03-06T19:39:08.403Z,12.00
2023-03-06T19:41:36.283Z,12.00
2023-03-06T19:44:06.079Z,12.00
2023-03-06T19:46:34.754Z,12.00
2023-03-06T19:49:11.863Z,12.10
2023-03-06T19:51:39.474Z,12.10
2023-03-06T19:54:06.864Z,12.10
2023-03-06T19:56:34.351Z,12.10
2023-03-06T19:59:02.049Z,12.10
2023-03-06T20:01:29.422Z,12.10
2023-03-06T20:03:59.565Z,12.00
2023-03-06T20:06:33.845Z,12.00
2023-03-06T20:09:04.426Z,12.00
2023-03-06T20:11:32.127Z,12.00
2023-03-06T20:14:02.346Z,12.00
2023-03-06T20:16:31.078Z,12.00
2023-03-06T20:19:00.463Z,12.00
2023-03-06T20:21:29.612Z,12.00
2023-03-06T20:23:58.459Z,12.10
2023-03-06T20:26:27.687Z,12.10
2023-03-06T20:28:55.545Z,12.20
2023-03-06T20:31:25.589Z,12.20
2023-03-06T20:33:55.076Z,12.20
2023-03-06T20:36:31.359Z,12.20
2023-03-06T20:39:04.144Z,12.20
2023-03-06T20:41:32.316Z,12.20
2023-03-06T20:44:01.447Z,12.20
2023-03-06T20:46:29.491Z,12.20
2023-03-06T20:48:58.355Z,12.20
2023-03-06T20:51:28.850Z,12.30
2023-03-06T20:53:56.310Z,12.30
2023-03-06T20:56:26.181Z,12.30
2023-03-06T20:58:53.980Z,12.30
2023-03-06T21:01:26.956Z,12.30
2023-03-06T21:03:56.948Z,12.30
2023-03-06T21:06:25.395Z,12.30
2023-03-06T21:08:52.809Z,12.30
2023-03-06T21:11:20.406Z,12.30
2023-03-06T21:13:47.802Z,12.30
2023-03-06T21:16:18.620Z,12.30
2023-03-06T21:18:46.939Z,12.30
2023-03-06T21:21:18.420Z,12.30
2023-03-06T21:23:46.559Z,12.30
2023-03-06T21:26:16.046Z,12.30
2023-03-06T21:28:43.561Z,12.30
2023-03-06T21:31:13.252Z,12.30
2023-03-06T21:33:41.250Z,12.40
2023-03-06T21:36:08.902Z,12.40
2023-03-06T21:38:36.836Z,12.40
2023-03-06T21:41:16.961Z,12.40
2023-03-06T21:43:44.349Z,12.40
2023-03-06T21:46:12.474Z,12.40
2023-03-06T21:48:39.936Z,12.40
2023-03-06T21:51:13.529Z,12.40
2023-03-06T21:53:44.574Z,12.40
2023-03-06T21:56:13.335Z,12.50
2023-03-06T21:58:40.902Z,12.50
2023-03-06T22:01:13.970Z,12.40
2023-03-06T22:03:41.484Z,12.40
2023-03-06T22:06:13.130Z,12.40
2023-03-06T22:08:41.244Z,12.40
2023-03-06T22:11:11.285Z,12.40
2023-03-06T22:13:39.083Z,12.40
2023-03-06T22:16:07.280Z,12.40
2023-03-06T22:18:35.742Z,12.40
2023-03-06T22:21:10.527Z,12.50
2023-03-06T22:23:38.158Z,12.40
2023-03-06T22:26:07.750Z,12.40
2023-03-06T22:28:35.209Z,12.40
2023-03-06T22:31:18.348Z,12.40
2023-03-06T22:33:46.138Z,12.40
2023-03-06T22:36:15.778Z,12.40
2023-03-06T22:38:45.206Z,12.40
2023-03-06T22:41:15.213Z,12.40
2023-03-06T22:43:43.146Z,12.40
2023-03-06T22:46:16.448Z,12.50
2023-03-06T22:48:44.989Z,12.40
2023-03-06T22:51:20.984Z,12.40
2023-03-06T22:53:49.010Z,12.40
2023-03-06T22:56:19.772Z,12.40
2023-03-06T22:58:48.448Z,12.50
2023-03-06T23:01:21.383Z,12.40
2023-03-06T23:03:51.753Z,12.50
2023-03-06T23:06:22.196Z,12.50
2023-03-06T23:08:52.003Z,12.50
2023-03-06T23:11:21.054Z,12.60
2023-03-06T23:14:07.253Z,12.60
2023-03-06T23:16:52.882Z,12.50
2023-03-06T23:19:38.627Z,12.50
2023-03-06T23:22:24.511Z,12.50
2023-03-06T23:25:10.946Z,12.40
2023-03-06T23:27:38.398Z,12.40
2023-03-06T23:30:06.811Z,12.40
2023-03-06T23:32:34.541Z,12.40
2023-03-06T23:35:02.082Z,12.40
2023-03-06T23:37:29.404Z,12.50
2023-03-06T23:39:56.965Z,12.50
2023-03-06T23:42:24.333Z,12.50
2023-03-06T23:44:51.746Z,12.40
2023-03-06T23:47:20.244Z,12.40
2023-03-06T23:49:47.598Z,12.40
2023-03-06T23:52:14.858Z,12.30
2023-03-06T23:54:42.209Z,12.40
2023-03-06T23:57:09.771Z,12.40
2023-03-06T23:59:37.082Z,12.30
